sensor_id;sensor_type;location;lat;lon;timestamp;pressure;altitude;pressure_sealevel;temperature;humidity
6345;BME280;3205;42.666;23.264;2023-12-04T00:02:00;94888.25;;;2.77;100.00
6345;BME280;3205;42.666;23.264;2023-12-04T00:04:26;94889.00;;;2.78;100.00
6345;BME280;3205;42.666;23.264;2023-12-04T00:06:53;94892.66;;;2.77;100.00
6345;BME280;3205;42.666;23.264;2023-12-04T00:09:19;94892.72;;;2.72;100.00
6345;BME280;3205;42.666;23.264;2023-12-04T00:11:45;94902.09;;;2.73;100.00
6345;BME280;3205;42.666;23.264;2023-12-04T00:14:11;94894.28;;;2.73;100.00
6345;BME280;3205;42.666;23.264;2023-12-04T00:16:38;94901.78;;;2.79;100.00
6345;BME280;3205;42.666;23.264;2023-12-04T00:19:05;94911.38;;;2.89;100.00
6345;BME280;3205;42.666;23.264;2023-12-04T00:21:31;94914.59;;;2.81;100.00
6345;BME280;3205;42.666;23.264;2023-12-04T00:23:57;94907.78;;;2.80;100.00
6345;BME280;3205;42.666;23.264;2023-12-04T00:26:23;94926.59;;;2.77;100.00
6345;BME280;3205;42.666;23.264;2023-12-04T00:28:49;94919.25;;;2.84;100.00
6345;BME280;3205;42.666;23.264;2023-12-04T00:31:16;94919.53;;;2.82;100.00
6345;BME280;3205;42.666;23.264;2023-12-04T00:33:42;94925.50;;;2.83;100.00
6345;BME280;3205;42.666;23.264;2023-12-04T00:36:10;94919.44;;;2.92;100.00
6345;BME280;3205;42.666;23.264;2023-12-04T00:38:36;94930.72;;;2.83;100.00
6345;BME280;3205;42.666;23.264;2023-12-04T00:41:03;94934.44;;;2.77;100.00
6345;BME280;3205;42.666;23.264;2023-12-04T00:43:29;94930.50;;;2.79;100.00
6345;BME280;3205;42.666;23.264;2023-12-04T00:45:55;94941.75;;;2.75;100.00
6345;BME280;3205;42.666;23.264;2023-12-04T00:48:21;94947.50;;;2.72;100.00
6345;BME280;3205;42.666;23.264;2023-12-04T00:50:48;94950.88;;;2.72;100.00
6345;BME280;3205;42.666;23.264;2023-12-04T00:53:15;94957.72;;;2.68;100.00
6345;BME280;3205;42.666;23.264;2023-12-04T00:55:41;94956.94;;;2.63;100.00
6345;BME280;3205;42.666;23.264;2023-12-04T00:58:07;94957.25;;;2.51;100.00
6345;BME280;3205;42.666;23.264;2023-12-04T01:00:33;94953.66;;;2.47;100.00
6345;BME280;3205;42.666;23.264;2023-12-04T01:03:00;94958.84;;;2.47;100.00
6345;BME280;3205;42.666;23.264;2023-12-04T01:05:26;94949.47;;;2.46;100.00
6345;BME280;3205;42.666;23.264;2023-12-04T01:07:52;94953.88;;;2.51;100.00
6345;BME280;3205;42.666;23.264;2023-12-04T01:10:19;94949.97;;;2.53;100.00
6345;BME280;3205;42.666;23.264;2023-12-04T01:12:46;94956.53;;;2.46;100.00
6345;BME280;3205;42.666;23.264;2023-12-04T01:15:12;94953.13;;;2.50;100.00
6345;BME280;3205;42.666;23.264;2023-12-04T01:17:38;94951.25;;;2.61;100.00
6345;BME280;3205;42.666;23.264;2023-12-04T01:20:06;94950.41;;;2.65;100.00
6345;BME280;3205;42.666;23.264;2023-12-04T01:22:32;94954.66;;;2.51;100.00
6345;BME280;3205;42.666;23.264;2023-12-04T01:24:58;94958.59;;;2.54;100.00
6345;BME280;3205;42.666;23.264;2023-12-04T01:27:25;94963.22;;;2.62;100.00
6345;BME280;3205;42.666;23.264;2023-12-04T01:29:52;94956.53;;;2.46;100.00
6345;BME280;3205;42.666;23.264;2023-12-04T01:32:18;94955.47;;;2.47;100.00
6345;BME280;3205;42.666;23.264;2023-12-04T01:34:44;94960.47;;;2.38;100.00
6345;BME280;3205;42.666;23.264;2023-12-04T01:37:11;94958.44;;;2.25;100.00
6345;BME280;3205;42.666;23.264;2023-12-04T01:39:37;94960.78;;;2.27;100.00
6345;BME280;3205;42.666;23.264;2023-12-04T01:42:04;94970.66;;;2.30;100.00
6345;BME280;3205;42.666;23.264;2023-12-04T01:44:31;94962.31;;;2.33;100.00
6345;BME280;3205;42.666;23.264;2023-12-04T01:46:57;94968.84;;;2.25;100.00
6345;BME280;3205;42.666;23.264;2023-12-04T01:49:23;94966.50;;;2.29;100.00
6345;BME280;3205;42.666;23.264;2023-12-04T01:51:50;94966.00;;;2.27;100.00
6345;BME280;3205;42.666;23.264;2023-12-04T01:54:17;94961.28;;;2.29;100.00
6345;BME280;3205;42.666;23.264;2023-12-04T01:56:44;94972.50;;;2.29;100.00
6345;BME280;3205;42.666;23.264;2023-12-04T01:59:10;94969.16;;;2.14;100.00
6345;BME280;3205;42.666;23.264;2023-12-04T02:01:37;94976.97;;;2.19;100.00
6345;BME280;3205;42.666;23.264;2023-12-04T02:04:05;94976.97;;;2.14;100.00
6345;BME280;3205;42.666;23.264;2023-12-04T02:06:34;94981.16;;;2.20;100.00
6345;BME280;3205;42.666;23.264;2023-12-04T02:09:01;94978.78;;;2.18;100.00
6345;BME280;3205;42.666;23.264;2023-12-04T02:11:28;94981.41;;;2.23;100.00
6345;BME280;3205;42.666;23.264;2023-12-04T02:13:54;94985.59;;;2.15;100.00
6345;BME280;3205;42.666;23.264;2023-12-04T02:16:23;94992.34;;;2.20;100.00
6345;BME280;3205;42.666;23.264;2023-12-04T02:18:52;94994.19;;;2.20;100.00
6345;BME280;3205;42.666;23.264;2023-12-04T02:21:19;94997.59;;;2.16;100.00
6345;BME280;3205;42.666;23.264;2023-12-04T02:23:48;94997.59;;;2.16;100.00
6345;BME280;3205;42.666;23.264;2023-12-04T02:26:16;94999.66;;;2.18;100.00
6345;BME280;3205;42.666;23.264;2023-12-04T02:28:48;94999.13;;;2.21;100.00
6345;BME280;3205;42.666;23.264;2023-12-04T02:31:16;95001.00;;;2.11;100.00
6345;BME280;3205;42.666;23.264;2023-12-04T02:33:45;95000.19;;;2.16;100.00
6345;BME280;3205;42.666;23.264;2023-12-04T02:36:13;95003.81;;;2.19;100.00
6345;BME280;3205;42.666;23.264;2023-12-04T02:38:40;95005.16;;;2.07;100.00
6345;BME280;3205;42.666;23.264;2023-12-04T02:41:08;95006.72;;;2.08;100.00
6345;BME280;3205;42.666;23.264;2023-12-04T02:43:34;95010.88;;;2.09;100.00
6345;BME280;3205;42.666;23.264;2023-12-04T02:46:00;95013.50;;;2.09;100.00
6345;BME280;3205;42.666;23.264;2023-12-04T02:48:26;95018.47;;;2.01;100.00
6345;BME280;3205;42.666;23.264;2023-12-04T02:50:53;95020.28;;;2.00;100.00
6345;BME280;3205;42.666;23.264;2023-12-04T02:53:19;95010.13;;;1.99;100.00
6345;BME280;3205;42.666;23.264;2023-12-04T02:55:45;95005.94;;;2.08;100.00
6345;BME280;3205;42.666;23.264;2023-12-04T02:58:16;95017.44;;;2.02;100.00
6345;BME280;3205;42.666;23.264;2023-12-04T03:00:42;95016.16;;;1.89;100.00
6345;BME280;3205;42.666;23.264;2023-12-04T03:03:09;95014.34;;;1.80;100.00
6345;BME280;3205;42.666;23.264;2023-12-04T03:05:35;95012.78;;;1.89;100.00
6345;BME280;3205;42.666;23.264;2023-12-04T03:08:01;95002.59;;;1.92;100.00
6345;BME280;3205;42.666;23.264;2023-12-04T03:10:27;95009.63;;;1.92;100.00
6345;BME280;3205;42.666;23.264;2023-12-04T03:12:54;95011.22;;;1.88;100.00
6345;BME280;3205;42.666;23.264;2023-12-04T03:15:20;95013.00;;;1.87;100.00
6345;BME280;3205;42.666;23.264;2023-12-04T03:17:47;95008.59;;;1.78;100.00
6345;BME280;3205;42.666;23.264;2023-12-04T03:20:13;95006.00;;;1.83;100.00
6345;BME280;3205;42.666;23.264;2023-12-04T03:22:39;95013.56;;;1.69;100.00
6345;BME280;3205;42.666;23.264;2023-12-04T03:25:06;95008.63;;;1.58;100.00
6345;BME280;3205;42.666;23.264;2023-12-04T03:27:32;95019.31;;;1.46;100.00
6345;BME280;3205;42.666;23.264;2023-12-04T03:29:59;95019.84;;;1.44;100.00
6345;BME280;3205;42.666;23.264;2023-12-04T03:32:25;95015.66;;;1.57;100.00
6345;BME280;3205;42.666;23.264;2023-12-04T03:34:52;95010.97;;;1.54;100.00
6345;BME280;3205;42.666;23.264;2023-12-04T03:37:18;95013.31;;;1.51;100.00
6345;BME280;3205;42.666;23.264;2023-12-04T03:39:44;95021.91;;;1.56;100.00
6345;BME280;3205;42.666;23.264;2023-12-04T03:42:10;95021.91;;;1.56;100.00
6345;BME280;3205;42.666;23.264;2023-12-04T03:44:37;95022.69;;;1.47;100.00
6345;BME280;3205;42.666;23.264;2023-12-04T03:47:03;95024.78;;;1.50;100.00
6345;BME280;3205;42.666;23.264;2023-12-04T03:49:30;95026.88;;;1.53;100.00
6345;BME280;3205;42.666;23.264;2023-12-04T03:51:56;95024.78;;;1.45;100.00
6345;BME280;3205;42.666;23.264;2023-12-04T03:54:22;95026.59;;;1.25;100.00
6345;BME280;3205;42.666;23.264;2023-12-04T03:56:49;95016.16;;;1.20;100.00
6345;BME280;3205;42.666;23.264;2023-12-04T03:59:15;95020.84;;;1.13;100.00
6345;BME280;3205;42.666;23.264;2023-12-04T04:01:41;95029.94;;;1.10;100.00
6345;BME280;3205;42.666;23.264;2023-12-04T04:04:07;95033.31;;;1.06;100.00
6345;BME280;3205;42.666;23.264;2023-12-04T04:06:34;95021.88;;;1.02;100.00
6345;BME280;3205;42.666;23.264;2023-12-04T04:09:00;95023.66;;;0.86;100.00
6345;BME280;3205;42.666;23.264;2023-12-04T04:11:27;95025.19;;;0.82;100.00
6345;BME280;3205;42.666;23.264;2023-12-04T04:13:53;95021.78;;;0.72;100.00
6345;BME280;3205;42.666;23.264;2023-12-04T04:16:19;95024.91;;;0.64;100.00
6345;BME280;3205;42.666;23.264;2023-12-04T04:18:45;95035.25;;;0.49;100.00
6345;BME280;3205;42.666;23.264;2023-12-04T04:21:12;95029.50;;;0.42;100.00
6345;BME280;3205;42.666;23.264;2023-12-04T04:23:38;95032.38;;;0.46;100.00
6345;BME280;3205;42.666;23.264;2023-12-04T04:26:05;95034.94;;;0.41;100.00
6345;BME280;3205;42.666;23.264;2023-12-04T04:28:31;95038.06;;;0.38;100.00
6345;BME280;3205;42.666;23.264;2023-12-04T04:30:58;95038.31;;;0.36;100.00
6345;BME280;3205;42.666;23.264;2023-12-04T04:33:24;95045.88;;;0.38;100.00
6345;BME280;3205;42.666;23.264;2023-12-04T04:35:50;95038.81;;;0.33;100.00
6345;BME280;3205;42.666;23.264;2023-12-04T04:38:17;95047.16;;;0.35;100.00
6345;BME280;3205;42.666;23.264;2023-12-04T04:40:44;95044.56;;;0.40;100.00
6345;BME280;3205;42.666;23.264;2023-12-04T04:43:10;95047.44;;;0.39;100.00
6345;BME280;3205;42.666;23.264;2023-12-04T04:45:37;95049.22;;;0.33;100.00
6345;BME280;3205;42.666;23.264;2023-12-04T04:48:03;95051.00;;;0.28;100.00
6345;BME280;3205;42.666;23.264;2023-12-04T04:50:29;95048.91;;;0.20;100.00
6345;BME280;3205;42.666;23.264;2023-12-04T04:52:56;95054.34;;;0.18;100.00
6345;BME280;3205;42.666;23.264;2023-12-04T04:55:22;95060.56;;;0.17;100.00
6345;BME280;3205;42.666;23.264;2023-12-04T04:57:49;95065.75;;;0.12;100.00
6345;BME280;3205;42.666;23.264;2023-12-04T05:00:17;95063.09;;;0.02;100.00
6345;BME280;3205;42.666;23.264;2023-12-04T05:02:43;95064.63;;;0.03;100.00
6345;BME280;3205;42.666;23.264;2023-12-04T05:05:09;95055.03;;;0.04;100.00
6345;BME280;3205;42.666;23.264;2023-12-04T05:07:35;95060.78;;;0.06;100.00
6345;BME280;3205;42.666;23.264;2023-12-04T05:10:02;95066.03;;;0.16;100.00
6345;BME280;3205;42.666;23.264;2023-12-04T05:12:28;95062.66;;;0.15;100.00
6345;BME280;3205;42.666;23.264;2023-12-04T05:14:55;95077.72;;;0.18;100.00
6345;BME280;3205;42.666;23.264;2023-12-04T05:17:21;95075.88;;;0.14;100.00
6345;BME280;3205;42.666;23.264;2023-12-04T05:19:47;95073.78;;;0.11;100.00
6345;BME280;3205;42.666;23.264;2023-12-04T05:22:14;95078.69;;;0.02;100.00
6345;BME280;3205;42.666;23.264;2023-12-04T05:24:40;95077.59;;;-0.06;100.00
6345;BME280;3205;42.666;23.264;2023-12-04T05:27:06;95077.03;;;-0.08;100.00
6345;BME280;3205;42.666;23.264;2023-12-04T05:29:32;95072.81;;;-0.19;100.00
6345;BME280;3205;42.666;23.264;2023-12-04T05:32:06;95076.28;;;-0.09;100.00
6345;BME280;3205;42.666;23.264;2023-12-04T05:34:32;95075.72;;;-0.11;100.00
6345;BME280;3205;42.666;23.264;2023-12-04T05:36:58;95083.75;;;-0.17;100.00
6345;BME280;3205;42.666;23.264;2023-12-04T05:39:25;95089.47;;;-0.15;100.00
6345;BME280;3205;42.666;23.264;2023-12-04T05:41:51;95092.34;;;-0.12;100.00
6345;BME280;3205;42.666;23.264;2023-12-04T05:44:17;95085.34;;;-0.11;100.00
6345;BME280;3205;42.666;23.264;2023-12-04T05:46:43;95087.44;;;-0.08;100.00
6345;BME280;3205;42.666;23.264;2023-12-04T05:49:10;95089.28;;;-0.04;100.00
6345;BME280;3205;42.666;23.264;2023-12-04T05:51:36;95090.28;;;-0.10;100.00
6345;BME280;3205;42.666;23.264;2023-12-04T05:54:03;95091.03;;;-0.14;100.00
6345;BME280;3205;42.666;23.264;2023-12-04T05:56:29;95085.84;;;-0.14;100.00
6345;BME280;3205;42.666;23.264;2023-12-04T05:58:55;95094.72;;;-0.10;100.00
6345;BME280;3205;42.666;23.264;2023-12-04T06:01:23;95093.94;;;-0.06;100.00
6345;BME280;3205;42.666;23.264;2023-12-04T06:03:49;95109.03;;;-0.03;100.00
6345;BME280;3205;42.666;23.264;2023-12-04T06:06:16;95112.69;;;0.01;100.00
6345;BME280;3205;42.666;23.264;2023-12-04T06:08:42;95109.06;;;0.02;100.00
6345;BME280;3205;42.666;23.264;2023-12-04T06:11:09;95102.31;;;0.01;100.00
6345;BME280;3205;42.666;23.264;2023-12-04T06:13:35;95115.13;;;0.12;100.00
6345;BME280;3205;42.666;23.264;2023-12-04T06:16:01;95104.81;;;0.22;100.00
6345;BME280;3205;42.666;23.264;2023-12-04T06:18:28;95108.81;;;0.40;100.00
6345;BME280;3205;42.666;23.264;2023-12-04T06:20:54;95110.25;;;0.72;100.00
6345;BME280;3205;42.666;23.264;2023-12-04T06:23:22;95118.22;;;1.22;100.00
6345;BME280;3205;42.666;23.264;2023-12-04T06:25:48;95114.69;;;1.77;100.00
6345;BME280;3205;42.666;23.264;2023-12-04T06:28:15;95113.59;;;2.33;100.00
6345;BME280;3205;42.666;23.264;2023-12-04T06:30:42;95119.03;;;2.56;100.00
6345;BME280;3205;42.666;23.264;2023-12-04T06:33:08;95126.09;;;2.46;100.00
6345;BME280;3205;42.666;23.264;2023-12-04T06:35:35;95126.63;;;2.38;100.00
6345;BME280;3205;42.666;23.264;2023-12-04T06:38:06;95125.56;;;2.44;100.00
6345;BME280;3205;42.666;23.264;2023-12-04T06:40:34;95135.50;;;2.37;100.00
6345;BME280;3205;42.666;23.264;2023-12-04T06:43:01;95131.06;;;2.32;100.00
6345;BME280;3205;42.666;23.264;2023-12-04T06:45:28;95145.38;;;2.60;100.00
6345;BME280;3205;42.666;23.264;2023-12-04T06:47:55;95148.41;;;2.92;100.00
6345;BME280;3205;42.666;23.264;2023-12-04T06:50:22;95151.16;;;3.20;100.00
6345;BME280;3205;42.666;23.264;2023-12-04T06:52:48;95148.56;;;3.25;100.00
6345;BME280;3205;42.666;23.264;2023-12-04T06:55:15;95157.13;;;3.35;100.00
6345;BME280;3205;42.666;23.264;2023-12-04T06:57:42;95150.28;;;3.49;100.00
6345;BME280;3205;42.666;23.264;2023-12-04T07:00:09;95157.63;;;3.80;100.00
6345;BME280;3205;42.666;23.264;2023-12-04T07:02:38;95146.91;;;4.48;100.00
6345;BME280;3205;42.666;23.264;2023-12-04T07:05:05;95144.59;;;5.40;100.00
6345;BME280;3205;42.666;23.264;2023-12-04T07:07:31;95151.13;;;6.48;100.00
6345;BME280;3205;42.666;23.264;2023-12-04T07:09:58;95162.28;;;7.79;80.05
6345;BME280;3205;42.666;23.264;2023-12-04T07:12:24;95149.38;;;9.00;66.31
6345;BME280;3205;42.666;23.264;2023-12-04T07:14:51;95154.28;;;9.71;61.93
6345;BME280;3205;42.666;23.264;2023-12-04T07:17:18;95159.00;;;10.58;57.88
6345;BME280;3205;42.666;23.264;2023-12-04T07:19:44;95149.56;;;11.40;53.77
6345;BME280;3205;42.666;23.264;2023-12-04T07:22:10;95150.88;;;12.12;50.57
6345;BME280;3205;42.666;23.264;2023-12-04T07:24:37;95155.22;;;12.69;49.59
6345;BME280;3205;42.666;23.264;2023-12-04T07:27:04;95152.16;;;13.00;45.91
6345;BME280;3205;42.666;23.264;2023-12-04T07:29:30;95157.66;;;13.63;45.17
6345;BME280;3205;42.666;23.264;2023-12-04T07:31:57;95159.94;;;14.24;43.54
6345;BME280;3205;42.666;23.264;2023-12-04T07:34:24;95160.41;;;14.26;43.43
6345;BME280;3205;42.666;23.264;2023-12-04T07:36:50;95162.00;;;14.42;41.93
6345;BME280;3205;42.666;23.264;2023-12-04T07:39:17;95158.66;;;14.57;41.11
6345;BME280;3205;42.666;23.264;2023-12-04T07:41:43;95155.00;;;14.50;40.77
6345;BME280;3205;42.666;23.264;2023-12-04T07:44:09;95153.31;;;14.84;42.01
6345;BME280;3205;42.666;23.264;2023-12-04T07:46:36;95156.97;;;15.07;40.53
6345;BME280;3205;42.666;23.264;2023-12-04T07:49:03;95151.03;;;15.26;39.06
6345;BME280;3205;42.666;23.264;2023-12-04T07:51:29;95161.09;;;15.63;39.82
6345;BME280;3205;42.666;23.264;2023-12-04T07:53:55;95148.59;;;16.32;40.07
6345;BME280;3205;42.666;23.264;2023-12-04T07:56:22;95154.78;;;15.86;37.68
6345;BME280;3205;42.666;23.264;2023-12-04T07:58:48;95164.75;;;15.74;37.38
6345;BME280;3205;42.666;23.264;2023-12-04T08:01:15;95162.19;;;15.77;38.88
6345;BME280;3205;42.666;23.264;2023-12-04T08:03:41;95181.03;;;15.69;37.67
6345;BME280;3205;42.666;23.264;2023-12-04T08:06:08;95181.78;;;15.54;37.42
6345;BME280;3205;42.666;23.264;2023-12-04T08:08:34;95184.72;;;15.06;37.81
6345;BME280;3205;42.666;23.264;2023-12-04T08:11:00;95184.50;;;15.27;39.35
6345;BME280;3205;42.666;23.264;2023-12-04T08:13:27;95185.31;;;15.27;38.79
6345;BME280;3205;42.666;23.264;2023-12-04T08:15:53;95184.28;;;15.47;37.49
6345;BME280;3205;42.666;23.264;2023-12-04T08:18:19;95179.47;;;15.68;36.88
6345;BME280;3205;42.666;23.264;2023-12-04T08:20:46;95176.91;;;15.56;35.53
6345;BME280;3205;42.666;23.264;2023-12-04T08:23:13;95181.94;;;15.30;35.82
6345;BME280;3205;42.666;23.264;2023-12-04T08:25:39;95176.88;;;14.71;36.59
6345;BME280;3205;42.666;23.264;2023-12-04T08:28:05;95171.97;;;15.27;36.42
6345;BME280;3205;42.666;23.264;2023-12-04T08:30:31;95182.91;;;15.53;35.67
6345;BME280;3205;42.666;23.264;2023-12-04T08:32:58;95182.00;;;14.64;37.01
6345;BME280;3205;42.666;23.264;2023-12-04T08:35:24;95177.03;;;14.62;36.31
6345;BME280;3205;42.666;23.264;2023-12-04T08:37:50;95180.94;;;14.80;37.08
6345;BME280;3205;42.666;23.264;2023-12-04T08:40:17;95185.31;;;14.33;35.31
6345;BME280;3205;42.666;23.264;2023-12-04T08:42:44;95181.69;;;13.90;37.08
6345;BME280;3205;42.666;23.264;2023-12-04T08:45:10;95182.69;;;13.62;37.12
6345;BME280;3205;42.666;23.264;2023-12-04T08:47:37;95177.34;;;13.50;37.46
6345;BME280;3205;42.666;23.264;2023-12-04T08:50:04;95170.16;;;13.98;36.49
6345;BME280;3205;42.666;23.264;2023-12-04T08:52:30;95175.13;;;13.52;37.77
6345;BME280;3205;42.666;23.264;2023-12-04T08:54:56;95176.22;;;13.27;38.31
6345;BME280;3205;42.666;23.264;2023-12-04T08:57:23;95164.78;;;13.03;37.83
6345;BME280;3205;42.666;23.264;2023-12-04T08:59:50;95173.22;;;13.29;36.77
6345;BME280;3205;42.666;23.264;2023-12-04T09:02:16;95166.53;;;13.55;37.26
6345;BME280;3205;42.666;23.264;2023-12-04T09:04:42;95164.72;;;13.95;35.81
6345;BME280;3205;42.666;23.264;2023-12-04T09:07:08;95153.88;;;13.88;36.07
6345;BME280;3205;42.666;23.264;2023-12-04T09:09:35;95156.53;;;14.51;35.67
6345;BME280;3205;42.666;23.264;2023-12-04T09:12:01;95157.81;;;14.96;35.00
6345;BME280;3205;42.666;23.264;2023-12-04T09:14:28;95155.25;;;15.42;34.14
6345;BME280;3205;42.666;23.264;2023-12-04T09:16:54;95155.56;;;15.25;33.96
6345;BME280;3205;42.666;23.264;2023-12-04T09:19:21;95141.75;;;14.65;34.69
6345;BME280;3205;42.666;23.264;2023-12-04T09:21:47;95145.88;;;14.00;35.44
6345;BME280;3205;42.666;23.264;2023-12-04T09:24:13;95142.47;;;13.28;36.37
6345;BME280;3205;42.666;23.264;2023-12-04T09:26:39;95139.88;;;12.63;37.15
6345;BME280;3205;42.666;23.264;2023-12-04T09:29:06;95138.56;;;12.16;38.63
6345;BME280;3205;42.666;23.264;2023-12-04T09:31:33;95147.03;;;11.81;39.84
6345;BME280;3205;42.666;23.264;2023-12-04T09:33:59;95140.53;;;11.04;41.01
6345;BME280;3205;42.666;23.264;2023-12-04T09:36:25;95129.78;;;10.30;40.88
6345;BME280;3205;42.666;23.264;2023-12-04T09:38:51;95139.50;;;9.14;42.91
6345;BME280;3205;42.666;23.264;2023-12-04T09:41:18;95144.09;;;8.70;44.02
6345;BME280;3205;42.666;23.264;2023-12-04T09:43:45;95135.38;;;8.17;45.30
6345;BME280;3205;42.666;23.264;2023-12-04T09:46:12;95143.66;;;7.14;47.74
6345;BME280;3205;42.666;23.264;2023-12-04T09:48:40;95138.69;;;6.99;49.94
6345;BME280;3205;42.666;23.264;2023-12-04T09:51:08;95132.59;;;6.71;51.52
6345;BME280;3205;42.666;23.264;2023-12-04T09:53:35;95131.28;;;6.42;53.75
6345;BME280;3205;42.666;23.264;2023-12-04T09:56:03;95124.75;;;6.08;56.75
6345;BME280;3205;42.666;23.264;2023-12-04T09:58:31;95121.66;;;5.88;58.66
6345;BME280;3205;42.666;23.264;2023-12-04T10:00:58;95113.84;;;5.46;61.64
6345;BME280;3205;42.666;23.264;2023-12-04T10:03:26;95115.66;;;5.27;65.17
6345;BME280;3205;42.666;23.264;2023-12-04T10:05:54;95109.19;;;5.19;68.59
6345;BME280;3205;42.666;23.264;2023-12-04T10:08:20;95112.34;;;4.98;70.84
6345;BME280;3205;42.666;23.264;2023-12-04T10:10:47;95108.94;;;4.74;72.59
6345;BME280;3205;42.666;23.264;2023-12-04T10:13:14;95111.94;;;4.63;78.84
6345;BME280;3205;42.666;23.264;2023-12-04T10:15:46;95118.22;;;4.90;81.04
6345;BME280;3205;42.666;23.264;2023-12-04T10:18:24;95119.69;;;4.96;78.87
6345;BME280;3205;42.666;23.264;2023-12-04T10:20:52;95117.91;;;4.92;78.14
6345;BME280;3205;42.666;23.264;2023-12-04T10:23:19;95115.00;;;4.93;79.95
6345;BME280;3205;42.666;23.264;2023-12-04T10:25:48;95114.69;;;5.00;78.71
6345;BME280;3205;42.666;23.264;2023-12-04T10:28:15;95100.03;;;4.75;80.73
6345;BME280;3205;42.666;23.264;2023-12-04T10:30:41;95102.06;;;4.78;85.94
6345;BME280;3205;42.666;23.264;2023-12-04T10:33:08;95093.00;;;4.94;86.21
6345;BME280;3205;42.666;23.264;2023-12-04T10:35:35;95092.38;;;5.02;81.98
6345;BME280;3205;42.666;23.264;2023-12-04T10:38:03;95091.88;;;5.00;80.42
6345;BME280;3205;42.666;23.264;2023-12-04T10:40:31;95086.97;;;5.17;86.00
6345;BME280;3205;42.666;23.264;2023-12-04T10:43:15;95082.84;;;5.29;81.20
6345;BME280;3205;42.666;23.264;2023-12-04T10:45:42;95078.38;;;5.12;76.90
6345;BME280;3205;42.666;23.264;2023-12-04T10:48:09;95086.47;;;5.15;78.53
6345;BME280;3205;42.666;23.264;2023-12-04T10:50:37;95084.22;;;5.04;80.13
6345;BME280;3205;42.666;23.264;2023-12-04T10:53:04;95083.03;;;4.96;76.76
6345;BME280;3205;42.666;23.264;2023-12-04T10:55:31;95080.47;;;4.91;86.61
6345;BME280;3205;42.666;23.264;2023-12-04T10:57:59;95085.72;;;4.91;84.46
6345;BME280;3205;42.666;23.264;2023-12-04T11:00:26;95087.03;;;4.89;89.03
6345;BME280;3205;42.666;23.264;2023-12-04T11:02:55;95086.41;;;4.97;83.99
6345;BME280;3205;42.666;23.264;2023-12-04T11:05:24;95081.03;;;4.88;86.18
6345;BME280;3205;42.666;23.264;2023-12-04T11:07:51;95082.06;;;4.87;80.58
6345;BME280;3205;42.666;23.264;2023-12-04T11:10:21;95083.41;;;4.85;77.02
6345;BME280;3205;42.666;23.264;2023-12-04T11:12:52;95075.34;;;4.81;79.35
6345;BME280;3205;42.666;23.264;2023-12-04T11:15:23;95074.28;;;4.82;80.06
6345;BME280;3205;42.666;23.264;2023-12-04T11:17:55;95076.56;;;4.89;81.23
6345;BME280;3205;42.666;23.264;2023-12-04T11:20:27;95071.22;;;4.99;78.50
6345;BME280;3205;42.666;23.264;2023-12-04T11:22:56;95067.84;;;4.93;75.66
6345;BME280;3205;42.666;23.264;2023-12-04T11:25:23;95060.50;;;4.95;78.69
6345;BME280;3205;42.666;23.264;2023-12-04T11:27:51;95049.41;;;5.03;80.96
6345;BME280;3205;42.666;23.264;2023-12-04T11:30:18;95053.00;;;5.07;85.40
6345;BME280;3205;42.666;23.264;2023-12-04T11:32:45;95063.44;;;5.30;87.74
6345;BME280;3205;42.666;23.264;2023-12-04T11:35:15;95048.50;;;5.31;74.77
6345;BME280;3205;42.666;23.264;2023-12-04T11:37:43;95040.50;;;5.04;75.54
6345;BME280;3205;42.666;23.264;2023-12-04T11:40:12;95040.97;;;5.06;80.46
6345;BME280;3205;42.666;23.264;2023-12-04T11:42:39;95046.91;;;4.93;79.05
6345;BME280;3205;42.666;23.264;2023-12-04T11:45:07;95035.44;;;4.89;80.13
6345;BME280;3205;42.666;23.264;2023-12-04T11:47:49;95031.88;;;4.80;80.89
6345;BME280;3205;42.666;23.264;2023-12-04T11:50:15;95028.81;;;4.73;78.07
6345;BME280;3205;42.666;23.264;2023-12-04T11:52:41;95033.50;;;4.76;87.28
6345;BME280;3205;42.666;23.264;2023-12-04T11:55:07;95030.09;;;4.76;77.64
6345;BME280;3205;42.666;23.264;2023-12-04T11:57:35;95022.84;;;4.91;78.93
6345;BME280;3205;42.666;23.264;2023-12-04T12:00:10;95021.28;;;4.90;84.21
6345;BME280;3205;42.666;23.264;2023-12-04T12:02:38;95019.50;;;4.86;81.46
6345;BME280;3205;42.666;23.264;2023-12-04T12:05:05;95014.56;;;4.84;85.00
6345;BME280;3205;42.666;23.264;2023-12-04T12:07:31;95020.78;;;4.88;83.15
6345;BME280;3205;42.666;23.264;2023-12-04T12:09:58;95020.06;;;4.83;80.88
6345;BME280;3205;42.666;23.264;2023-12-04T12:12:25;95016.78;;;4.72;84.01
6345;BME280;3205;42.666;23.264;2023-12-04T12:14:52;95012.66;;;4.66;85.57
6345;BME280;3205;42.666;23.264;2023-12-04T12:17:19;94999.94;;;4.78;86.49
6345;BME280;3205;42.666;23.264;2023-12-04T12:19:45;94995.50;;;4.79;94.92
6345;BME280;3205;42.666;23.264;2023-12-04T12:22:12;94993.09;;;4.82;91.87
6345;BME280;3205;42.666;23.264;2023-12-04T12:24:39;95000.75;;;4.79;84.13
6345;BME280;3205;42.666;23.264;2023-12-04T12:27:05;94994.94;;;4.82;83.30
6345;BME280;3205;42.666;23.264;2023-12-04T12:29:31;94999.94;;;4.78;82.46
6345;BME280;3205;42.666;23.264;2023-12-04T12:31:58;94992.09;;;4.78;86.76
6345;BME280;3205;42.666;23.264;2023-12-04T12:34:25;94985.59;;;4.94;88.56
6345;BME280;3205;42.666;23.264;2023-12-04T12:36:53;94981.94;;;4.95;82.07
6345;BME280;3205;42.666;23.264;2023-12-04T12:39:19;94979.03;;;4.97;83.79
6345;BME280;3205;42.666;23.264;2023-12-04T12:41:47;94981.22;;;5.08;83.52
6345;BME280;3205;42.666;23.264;2023-12-04T12:44:14;94977.03;;;4.89;85.92
6345;BME280;3205;42.666;23.264;2023-12-04T12:46:40;94971.94;;;4.79;86.14
6345;BME280;3205;42.666;23.264;2023-12-04T12:49:06;94974.47;;;4.84;84.52
6345;BME280;3205;42.666;23.264;2023-12-04T12:51:33;94977.59;;;4.86;89.97
6345;BME280;3205;42.666;23.264;2023-12-04T12:54:00;94974.16;;;4.90;87.76
6345;BME280;3205;42.666;23.264;2023-12-04T12:56:26;94970.72;;;4.71;83.36
6345;BME280;3205;42.666;23.264;2023-12-04T12:58:53;94968.38;;;4.70;84.60
6345;BME280;3205;42.666;23.264;2023-12-04T13:01:22;94958.25;;;4.82;86.67
6345;BME280;3205;42.666;23.264;2023-12-04T13:03:50;94956.88;;;4.89;85.13
6345;BME280;3205;42.666;23.264;2023-12-04T13:06:17;94959.63;;;4.98;86.02
6345;BME280;3205;42.666;23.264;2023-12-04T13:08:44;94953.53;;;5.02;88.75
6345;BME280;3205;42.666;23.264;2023-12-04T13:11:10;94960.00;;;4.91;84.13